Honolulu, HI

08:57 PM HST del 25 Ottobre 2014 (GMT -1000)
Pacific Heights | Change Station
CLOSE
Current Station
Stazione meteo personale
Location: Honolulu, HI
Altitudine: 528 ft
Stazioni meteo nelle vicinanze

Alt. 528 ft 21.33 °N, 157.84 °W | Updated 7 seconds ago

Scattered Clouds
Nubi sparse
76.3 °F
Sembra 77 °F
N
6.0
Vento Variabile Vento da NNE
Gusts 14.0 mph

Oggi
Massima -- | Minima -- °F
--% Possibilità di precip.
Ieri
Massima -- | Minima -- °F
Precip. -- in
6:31 AM 5:59 PM
Luna crescente, 6% visible
Pressione 30.03 in
Visibilità 10.0 miglia
Nuvole Alcuni 2500 ft
Nubi sparse 5000 ft
Indice di calore 77 °F
Punto di rugiada 70 °F
Umidità 80%
Piovosità 0.02 in
Spessore del manto nevoso Non disponibile.
Raggi UV 0 fuori da 12
Polline Non disponibile.
PM2.5 Buono
Flu Activity Sporadic
METAR PHNL 260653Z 06004KT 10SM FEW025 SCT050 26/22 A3003 RMK AO2 SLP168 T02610217

More Conditions Fewer Conditions

Pressione 30.03 in
Visibilità 10.0 miglia
Nuvole Alcuni 2500 ft
Nubi sparse 5000 ft
Indice di calore 77 °F
Punto di rugiada 70 °F
Umidità 80%
Piovosità 0.02 in
Spessore del manto nevoso Non disponibile.
Raggi UV 0 fuori da 12
Polline Non disponibile.
PM2.5 Buono
Flu Activity Sporadic
METAR PHNL 260653Z 06004KT 10SM FEW025 SCT050 26/22 A3003 RMK AO2 SLP168 T02610217

More Conditions Fewer Conditions

10-Day Weather Forecast

Almanac

Astronomia

Oct. 25, 2014 Alba Tramonto
Ora attuale 06:31 HST 17:59 HST
Crepuscolo civile 06:08 HST 18:21 HST
Crepuscolo nautico 05:42 HST 18:48 HST
Crepuscolo astronomico 05:16 HST 19:14 HST
Luna 08:11 HST (10/25) 19:42 HST (10/25)
Estensione della luce visibile 12h 13m
Lunghezza del giorno
11h 28m
Tomorrow will be 1m 6s shorter.
Luna crescente, 6% of the Moon is Illuminated
Ott 26
Luna crescente
Ott 30
Primo quarto
Nov 6
Luna piena
Nov 14
Ultimo quarto
Nov 22
Nuovo

Minime e massime di ieri

State Highs State Lows

Community

WunderPhotos

Upload Photos

1,765,117 foto caricate!

Nearby

Qualità dell'aria

  Qualità dell'aria Indice AQ Inquinante
Ieri Buono
PM10
Attuale Buono
PM2.5
Sabato Buono
OZONE
Domenica Buono
OZONE

Profondità neve

Stazione Profondità Altitudine
Non sono state evidenziate nuove nevicate

Attività sismica

Città  Distanza Mag. Data & Ora
Non sono state riportate attività sismiche nelle vicinanze.
Minimo Magnitudo Mostrato è 2.5.

Temperature delle acque costiere

Località Temperatura
Nessun dato dalle stazioni

Stazioni meteo nelle vicinanze